Cleveland, OH (44110)

4:07 AM EDT on March 25, 2017 (GMT -0400)
Lakefront East | | Change Station

Elev 581 ft 41.59 °N, 81.56 °W | Updated 8 seconds ago

Mostly Cloudy
Mostly Cloudy
54.0 °F
Feels Like 54.0 °F
N
3.0
Wind Variable Wind from South
Gusts 5.0 mph

Today
High -- | Low -- °F
--% Chance of Precip.
Yesterday
High -- | Low -- °F
Precip. -- in
Pressure 30.06 in
Visibility 10.0 miles
Clouds Mostly Cloudy 6000 ft
Mostly Cloudy 8500 ft
Dew Point 50 °F
Humidity 85%
Rainfall 0.12 in
Snow Depth Not available.
7:20 AM 7:44 PM
Waning Crescent, 10% visible
METAR KBKL 250753Z AUTO 22003KT 10SM BKN060 BKN085 08/05 A3007 RMK AO2 SLP180 T00830050
Pressure 30.06 in
Visibility 10.0 miles
Clouds Mostly Cloudy 6000 ft
Mostly Cloudy 8500 ft
Dew Point 50 °F
Humidity 85%
Rainfall 0.12 in
Snow Depth Not available.
7:20 AM 7:44 PM
Waning Crescent, 10% visible
METAR KBKL 250753Z AUTO 22003KT 10SM BKN060 BKN085 08/05 A3007 RMK AO2 SLP180 T00830050

Get Severe Weather Alerts

Thanks for signing up!

Be on the lookout for a verification email in your inbox.

You'll start receiving the daily forecast at 8 AM.

×

10-Day Weather Forecast

Almanac

Astronomy

Mar. 25, 2017 Rise Set
Actual Time
Civil Twilight
Nautical Twilight
Astronomical Twilight
Moon
Length of Visible Light
Length of Day
Tomorrow will be .
, % of the Moon is Illuminated

Today's Extremes

State Highs State Lows

Community

WunderPhotos

Upload Photos

1,962,540 photos uploaded!

WunderBlog® & News

Nearby

Air Quality

  Air Quality AQ Index Pollutant
Not available.

Snow Depth

Station Depth Elevation

Earthquake Activity

City Distance Mag. Time & Date
Minimum magnitude displayed is 2.5.

Earthquake Activity

City Distance Mag. Time & Date
Minimum magnitude displayed is 2.5.

Coastal Water Temperatures

Place Temperature

Stations

Nearby Weather Stations

Station Location Temp. Windchill Dew Point Humidity Wind Precip. Elev Updated Type
                   

Watches & Warnings

There are currently no watches in effect.